Susquehanna — WDD9976 — position and weather

sailwx.info

Track history (hours):
 
Tides and Currents Weather Stations Pressure Air Temp Water Temp Dewpoint Dewpoint Depression Visibility Wind Speed Wind Dir Waves Ship Positions

Susquehanna

Owner: Vane Line Bunkering, Inc., Baltimore, MD. More information available from US FCC via Universal Licensing System and Coast Guard Vessel Documentation Center.

Last reported at 2017-Apr-23 19:29 UTC. Time now 2017-Apr-23 19:38 UTC.
Position N 39°54' W 075°12'.

Length 28 m; draft 4.2 m.

Type: Tug. MMSI: 367318750.

Date/timePositionNaut miles runAvg speedWind from/ knotsBaromVisibWave heightAir tempDewpointWater temp
2017-Apr-23 19:29N 39°54' W 075°12'0 0.0
2017-Apr-23 18:59N 39°54' W 075°12'0 0.0
2017-Apr-23 18:30N 39°54' W 075°12'0 0.0
2017-Apr-23 18:00N 39°54' W 075°12'0 0.0
2017-Apr-23 17:30N 39°54' W 075°12'0 0.0
2017-Apr-23 16:58N 39°54' W 075°12'0 0.0
2017-Apr-23 16:28N 39°54' W 075°12'0 0.0
2017-Apr-23 15:58N 39°54' W 075°12'0 0.0
2017-Apr-23 15:29N 39°54' W 075°12'0 0.0
2017-Apr-23 14:59N 39°54' W 075°12'0 0.0
2017-Apr-23 14:00N 39°54' W 075°12'0 0.0
2017-Apr-23 13:30N 39°54' W 075°12'0 0.0
2017-Apr-23 13:00N 39°54' W 075°12'0 0.0
2017-Apr-23 12:30N 39°54' W 075°12'0 0.1
2017-Apr-23 12:00N 39°54' W 075°12'4 8.0
2017-Apr-23 11:30N 39°51' W 075°16'510.6
2017-Apr-23 11:00N 39°50' W 075°23'510.6
2017-Apr-23 10:30N 39°46' W 075°28'4 8.0
2017-Apr-23 10:00N 39°43' W 075°31'0 0.0
2017-Apr-23 09:30N 39°43' W 075°31'0 0.0
2017-Apr-23 08:58N 39°43' W 075°31'0 0.0
2017-Apr-23 08:30N 39°43' W 075°31'0 0.3
2017-Apr-23 07:59N 39°43' W 075°31'0 0.0
2017-Apr-23 07:29N 39°43' W 075°31'0 0.0
2017-Apr-23 06:59N 39°43' W 075°31'0 0.0
2017-Apr-23 06:30N 39°43' W 075°31'0 0.0
2017-Apr-23 06:00N 39°43' W 075°31'0 0.0
2017-Apr-23 05:30N 39°43' W 075°31'0 0.0
2017-Apr-23 04:58N 39°43' W 075°31'0 0.0
2017-Apr-23 04:28N 39°43' W 075°31'0 0.0
2017-Apr-23 03:58N 39°43' W 075°31'0 0.0
2017-Apr-23 03:29N 39°43' W 075°31'0 0.0
2017-Apr-23 02:59N 39°43' W 075°31'0 0.0
2017-Apr-23 02:29N 39°43' W 075°31'0 0.0
2017-Apr-23 02:00N 39°43' W 075°31'0 0.0
2017-Apr-23 01:30N 39°43' W 075°31'0 0.0
2017-Apr-23 01:00N 39°43' W 075°31'0 0.0
2017-Apr-23 00:28N 39°43' W 075°31'0 0.0
2017-Apr-22 23:58N 39°43' W 075°31'0 0.0
2017-Apr-22 23:28N 39°43' W 075°31'0 0.0
2017-Apr-22 22:59N 39°43' W 075°31'0 0.0
2017-Apr-22 22:30N 39°43' W 075°31'0 0.5
2017-Apr-22 22:00N 39°43' W 075°31'3 5.4
2017-Apr-22 21:30N 39°45' W 075°29'5 9.9
2017-Apr-22 21:00N 39°49' W 075°24'510.4
2017-Apr-22 20:30N 39°51' W 075°18'510.2
2017-Apr-22 20:00N 39°53' W 075°12'1 2.0
2017-Apr-22 19:30N 39°54' W 075°12'0 0.2
2017-Apr-22 18:59N 39°54' W 075°12'0 0.0
2017-Apr-22 18:29N 39°54' W 075°12'0 0.0
2017-Apr-22 17:59N 39°54' W 075°12'0 0.0
2017-Apr-22 17:30N 39°54' W 075°12'0 0.0
2017-Apr-22 16:57N 39°54' W 075°12'0 0.0
2017-Apr-22 16:30N 39°54' W 075°12'0 0.0
2017-Apr-22 15:58N 39°54' W 075°12'0 0.0
2017-Apr-22 15:28N 39°54' W 075°12'0 0.0
2017-Apr-22 14:52N 39°54' W 075°12'0 0.0
2017-Apr-22 14:29N 39°54' W 075°12'0 0.0
2017-Apr-22 13:20N 39°54' W 075°12'0 0.0
2017-Apr-22 13:00N 39°54' W 075°12'0 0.0
2017-Apr-22 12:27N 39°54' W 075°12'0 0.0
2017-Apr-22 11:54N 39°54' W 075°12'0 0.0
2017-Apr-22 11:30N 39°54' W 075°12'0 0.0
2017-Apr-22 10:54N 39°54' W 075°12'0 0.0
2017-Apr-22 10:25N 39°54' W 075°12'0 0.0
2017-Apr-22 09:58N 39°54' W 075°12'0 0.0
2017-Apr-22 09:28N 39°54' W 075°12'0 0.0
2017-Apr-22 08:56N 39°54' W 075°12'0 0.0
2017-Apr-22 08:29N 39°54' W 075°12'0 0.0
2017-Apr-22 07:56N 39°54' W 075°12'0 0.0
2017-Apr-22 07:30N 39°54' W 075°12'0 0.0
2017-Apr-22 06:57N 39°54' W 075°12'0 0.0
2017-Apr-22 06:24N 39°54' W 075°12'0 0.0
2017-Apr-22 05:55N 39°54' W 075°12'0 0.0
2017-Apr-22 05:07N 39°54' W 075°12'0 0.0
2017-Apr-22 04:55N 39°54' W 075°12'0 0.0
2017-Apr-22 04:26N 39°54' W 075°12'0 0.0
2017-Apr-22 03:59N 39°54' W 075°12'0 0.2
2017-Apr-22 03:30N 39°54' W 075°12'1 1.2
2017-Apr-22 02:59N 39°54' W 075°11'0 0.0
2017-Apr-22 02:29N 39°54' W 075°11'0 0.0
2017-Apr-22 01:59N 39°54' W 075°11'0 0.0
2017-Apr-22 01:30N 39°54' W 075°11'0 0.0
2017-Apr-22 01:00N 39°54' W 075°11'0 0.0
2017-Apr-22 00:30N 39°54' W 075°11'1 1.2
2017-Apr-22 00:01N 39°54' W 075°12'0 0.3
2017-Apr-21 23:30N 39°54' W 075°12'0 0.0
2017-Apr-21 23:00N 39°54' W 075°12'0 0.0
2017-Apr-21 22:30N 39°54' W 075°12'0 0.0
2017-Apr-21 22:01N 39°54' W 075°12'0 0.0
2017-Apr-21 21:29N 39°54' W 075°12'0 0.0
2017-Apr-21 20:59N 39°54' W 075°12'0 0.0
2017-Apr-21 20:29N 39°54' W 075°12'0 0.0
2017-Apr-21 20:00N 39°54' W 075°12'0 0.0
2017-Apr-21 19:30N 39°54' W 075°12'0 0.0
2017-Apr-21 19:00N 39°54' W 075°12'0 0.0
2017-Apr-21 18:28N 39°54' W 075°12'0 0.0
2017-Apr-21 17:58N 39°54' W 075°12'0 0.0
2017-Apr-21 17:28N 39°54' W 075°12'0 0.0
2017-Apr-21 17:00N 39°54' W 075°12'2 5.0
2017-Apr-21 16:31N 39°53' W 075°09'1 2.2
2017-Apr-21 16:01N 39°54' W 075°08'3 5.4
2017-Apr-21 15:31N 39°54' W 075°12'1 2.9
2017-Apr-21 15:01N 39°55' W 075°13'0 0.1
2017-Apr-21 14:28N 39°55' W 075°13'1 1.1
2017-Apr-21 13:30N 39°54' W 075°12'0 0.0
2017-Apr-21 13:00N 39°54' W 075°12'0 0.0
2017-Apr-21 12:31N 39°54' W 075°12'0 0.0
2017-Apr-21 11:58N 39°54' W 075°12'0 0.0
2017-Apr-21 11:28N 39°54' W 075°12'0 0.0
2017-Apr-21 10:59N 39°54' W 075°12'0 0.0
2017-Apr-21 10:29N 39°54' W 075°12'0 0.0
2017-Apr-21 09:59N 39°54' W 075°12'0 0.0
2017-Apr-21 09:30N 39°54' W 075°12'0 0.0
2017-Apr-21 09:00N 39°54' W 075°12'0 0.0
2017-Apr-21 08:30N 39°54' W 075°12'0 0.0
2017-Apr-21 07:58N 39°54' W 075°12'0 0.0
2017-Apr-21 07:28N 39°54' W 075°12'0 0.0
2017-Apr-21 06:58N 39°54' W 075°12'0 0.0
2017-Apr-21 06:29N 39°54' W 075°12'0 0.0
2017-Apr-21 05:59N 39°54' W 075°12'0 0.0
2017-Apr-21 05:29N 39°54' W 075°12'1 2.2
2017-Apr-21 05:00N 39°55' W 075°13'0 0.7
2017-Apr-21 04:30N 39°54' W 075°13'1 2.6
2017-Apr-21 04:00N 39°53' W 075°12'0 0.0
2017-Apr-21 03:28N 39°53' W 075°12'0 0.0
2017-Apr-21 02:55N 39°53' W 075°12'0 0.0
2017-Apr-21 02:22N 39°53' W 075°12'1 1.5
2017-Apr-21 01:57N 39°54' W 075°12'0 0.0
2017-Apr-21 01:30N 39°54' W 075°12'0 0.0
2017-Apr-21 01:00N 39°54' W 075°12'0 0.0
2017-Apr-21 00:28N 39°54' W 075°12'0 0.0
2017-Apr-20 23:58N 39°54' W 075°12'0 0.0
2017-Apr-20 23:28N 39°54' W 075°12'0 0.0
2017-Apr-20 22:59N 39°54' W 075°12'0 0.0
2017-Apr-20 22:26N 39°54' W 075°12'0 0.0
2017-Apr-20 21:59N 39°54' W 075°12'1 1.3
2017-Apr-20 21:30N 39°53' W 075°12'0 0.1
2017-Apr-20 21:00N 39°53' W 075°12'1 1.5
2017-Apr-20 20:30N 39°53' W 075°12'3 5.7
2017-Apr-20 20:00N 39°51' W 075°15'1 2.8
2017-Apr-20 19:30N 39°52' W 075°13'2 4.1
2017-Apr-20 19:00N 39°54' W 075°12'1 2.2
2017-Apr-20 18:30N 39°53' W 075°12'4 8.6
2017-Apr-20 18:00N 39°51' W 075°17'4 8.3
2017-Apr-20 17:30N 39°50' W 075°22'4 8.8
2017-Apr-20 17:00N 39°47' W 075°27'4 8.7
2017-Apr-20 16:30N 39°44' W 075°30'1 1.7
2017-Apr-20 16:00N 39°43' W 075°31'0 0.4
2017-Apr-20 15:29N 39°43' W 075°31'0 0.0
2017-Apr-20 14:59N 39°43' W 075°31'0 0.0
2017-Apr-20 14:29N 39°43' W 075°31'0 0.0
2017-Apr-20 13:30N 39°43' W 075°31'0 0.0
2017-Apr-20 13:00N 39°43' W 075°31'0 0.0
2017-Apr-20 12:28N 39°43' W 075°31'0 0.0
2017-Apr-20 11:58N 39°43' W 075°31'0 0.0
2017-Apr-20 11:28N 39°43' W 075°31'0 0.0
2017-Apr-20 10:59N 39°43' W 075°31'0 0.0
2017-Apr-20 10:29N 39°43' W 075°31'0 0.0
2017-Apr-20 09:59N 39°43' W 075°31'0 0.0
2017-Apr-20 09:27N 39°43' W 075°31'0 0.0
2017-Apr-20 09:00N 39°43' W 075°31'0 0.0
2017-Apr-20 08:30N 39°43' W 075°31'0 0.0
2017-Apr-20 07:58N 39°43' W 075°31'0 0.0
2017-Apr-20 07:25N 39°43' W 075°31'0 0.0
2017-Apr-20 06:58N 39°43' W 075°31'0 0.0
2017-Apr-20 06:29N 39°43' W 075°31'0 0.0
2017-Apr-20 05:59N 39°43' W 075°31'0 0.0
2017-Apr-20 05:29N 39°43' W 075°31'0 0.5
2017-Apr-20 05:00N 39°43' W 075°31'1 2.3
2017-Apr-20 04:30N 39°44' W 075°30'5 9.9
2017-Apr-20 04:00N 39°48' W 075°26'510.5
2017-Apr-20 03:30N 39°51' W 075°20'510.0
2017-Apr-20 03:00N 39°52' W 075°14'2 4.9
2017-Apr-20 02:30N 39°54' W 075°12'0 0.0
2017-Apr-20 02:00N 39°54' W 075°12'0 0.0
2017-Apr-20 01:30N 39°54' W 075°12'0 0.2
2017-Apr-20 01:00N 39°54' W 075°12'0 0.0
2017-Apr-20 00:30N 39°54' W 075°12'0 0.0
2017-Apr-19 23:58N 39°54' W 075°12'0 0.0
2017-Apr-19 23:23N 39°54' W 075°12'0 0.0
2017-Apr-19 22:56N 39°54' W 075°12'1 1.8
2017-Apr-19 22:31N 39°53' W 075°12'3 6.3
2017-Apr-19 22:00N 39°54' W 075°08'0 0.8
2017-Apr-19 21:30N 39°54' W 075°08'0 0.1
2017-Apr-19 21:01N 39°54' W 075°08'3 6.9
2017-Apr-19 20:31N 39°54' W 075°12'0 0.5
2017-Apr-19 20:00N 39°54' W 075°12'0 0.0
2017-Apr-19 19:30N 39°54' W 075°12'0 0.0
2017-Apr-19 19:00N 39°54' W 075°12'0 0.0
2017-Apr-19 18:28N 39°54' W 075°12'0 0.0
2017-Apr-19 17:58N 39°54' W 075°12'1 2.0
2017-Apr-19 17:28N 39°55' W 075°13'0 0.1
2017-Apr-19 16:58N 39°55' W 075°13'2 3.8
2017-Apr-19 16:30N 39°53' W 075°12'3 5.9
2017-Apr-19 15:57N 39°51' W 075°15'0 0.0
2017-Apr-19 15:30N 39°51' W 075°15'0 0.0
2017-Apr-19 15:01N 39°51' W 075°15'3 6.7
2017-Apr-19 14:30N 39°54' W 075°12'0 0.0
2017-Apr-19 13:23N 39°54' W 075°12'0 0.0
2017-Apr-19 13:00N 39°54' W 075°12'0 0.0
2017-Apr-19 12:30N 39°54' W 075°12'0 0.2
2017-Apr-19 11:58N 39°54' W 075°12'1 1.2
2017-Apr-19 11:29N 39°54' W 075°11'0 0.0
2017-Apr-19 10:59N 39°54' W 075°11'0 0.0
2017-Apr-19 10:30N 39°54' W 075°11'0 0.0
2017-Apr-19 10:00N 39°54' W 075°11'1 1.4
2017-Apr-19 09:30N 39°54' W 075°12'0 0.0
2017-Apr-19 08:58N 39°54' W 075°12'0 0.0
2017-Apr-19 08:28N 39°54' W 075°12'0 0.0
2017-Apr-19 07:58N 39°54' W 075°12'0 0.0
2017-Apr-19 07:29N 39°54' W 075°12'0 0.0
2017-Apr-19 06:59N 39°54' W 075°12'0 0.0
2017-Apr-19 06:30N 39°54' W 075°12'0 0.3
2017-Apr-19 06:00N 39°54' W 075°12'1 2.9
2017-Apr-19 05:30N 39°52' W 075°12'0 0.0
2017-Apr-19 04:59N 39°52' W 075°12'0 0.0
2017-Apr-19 04:29N 39°52' W 075°12'0 0.0
2017-Apr-19 03:57N 39°52' W 075°12'0 0.0
2017-Apr-19 03:30N 39°52' W 075°12'0 0.0
2017-Apr-19 03:00N 39°52' W 075°12'0 0.0
2017-Apr-19 02:28N 39°52' W 075°12'0 0.0
2017-Apr-19 01:55N 39°52' W 075°12'0 0.0
2017-Apr-19 01:28N 39°52' W 075°12'0 0.1
2017-Apr-19 00:59N 39°52' W 075°12'0 0.0
2017-Apr-19 00:29N 39°52' W 075°12'0 0.1
2017-Apr-18 23:59N 39°52' W 075°12'0 0.0
2017-Apr-18 23:30N 39°52' W 075°12'0 0.0
2017-Apr-18 23:00N 39°52' W 075°12'0 0.0
2017-Apr-18 22:30N 39°52' W 075°12'1 2.5
2017-Apr-18 22:01N 39°54' W 075°12'0 0.9
2017-Apr-18 21:30N 39°54' W 075°12'0 0.0
2017-Apr-18 21:00N 39°54' W 075°12'1 2.6
2017-Apr-18 20:30N 39°52' W 075°12'0 0.0
2017-Apr-18 19:59N 39°52' W 075°12'0 0.0
2017-Apr-18 19:29N 39°52' W 075°12'1 2.8
2017-Apr-18 19:00N 39°54' W 075°12'2 3.6
2017-Apr-18 18:30N 39°52' W 075°13'1 1.0
2017-Apr-18 17:58N 39°52' W 075°12'0 0.0
2017-Apr-18 17:28N 39°52' W 075°12'0 0.0
2017-Apr-18 16:58N 39°52' W 075°12'0 0.0
2017-Apr-18 16:30N 39°52' W 075°12'1 2.9
2017-Apr-18 16:00N 39°54' W 075°12'1 2.8
2017-Apr-18 15:30N 39°52' W 075°12'2 4.9
2017-Apr-18 15:00N 39°51' W 075°15'4 8.2
2017-Apr-18 14:30N 39°51' W 075°21'8 8.1
2017-Apr-18 13:30N 39°46' W 075°29'3 6.3
2017-Apr-18 13:01N 39°43' W 075°31'0 0.0
2017-Apr-18 12:30N 39°43' W 075°31'0 0.4
2017-Apr-18 11:58N 39°43' W 075°31'0 0.0
2017-Apr-18 11:29N 39°43' W 075°31'0 0.0
2017-Apr-18 10:59N 39°43' W 075°31'0 0.0
2017-Apr-18 10:29N 39°43' W 075°31'0 0.0
2017-Apr-18 10:00N 39°43' W 075°31'0 0.0
2017-Apr-18 09:30N 39°43' W 075°31'0 0.0
2017-Apr-18 09:00N 39°43' W 075°31'0 0.0
2017-Apr-18 08:30N 39°43' W 075°31'0 0.0
2017-Apr-18 08:00N 39°43' W 075°31'0 0.0
2017-Apr-18 07:30N 39°43' W 075°31'0 0.0
2017-Apr-18 07:00N 39°43' W 075°31'0 0.0
2017-Apr-18 06:30N 39°43' W 075°31'0 0.0
2017-Apr-18 06:00N 39°43' W 075°31'0 0.0
2017-Apr-18 05:30N 39°43' W 075°31'0 0.0
2017-Apr-18 05:00N 39°43' W 075°31'0 0.0
2017-Apr-18 04:30N 39°43' W 075°31'0 0.0
2017-Apr-18 04:00N 39°43' W 075°31'0 0.0
2017-Apr-18 03:30N 39°43' W 075°31'0 0.0
2017-Apr-18 03:00N 39°43' W 075°31'0 0.0
2017-Apr-18 02:30N 39°43' W 075°31'0 0.0
2017-Apr-18 02:00N 39°43' W 075°31'0 0.5
2017-Apr-18 01:30N 39°43' W 075°31'0 0.7
2017-Apr-18 01:00N 39°43' W 075°30'4 8.2
2017-Apr-18 00:30N 39°47' W 075°28'4 8.8
2017-Apr-18 00:00N 39°49' W 075°23'5 9.2
2017-Apr-17 23:30N 39°51' W 075°18'4 8.5
2017-Apr-17 23:00N 39°52' W 075°12'1 2.5
2017-Apr-17 22:30N 39°54' W 075°12'0 0.0
2017-Apr-17 22:00N 39°54' W 075°12'0 0.2
2017-Apr-17 21:30N 39°54' W 075°12'0 0.0
2017-Apr-17 20:59N 39°54' W 075°12'0 0.0
2017-Apr-17 20:30N 39°54' W 075°12'0 0.0
2017-Apr-17 20:00N 39°54' W 075°12'0 0.0
2017-Apr-17 19:24N 39°54' W 075°12'0 0.0
2017-Apr-17 18:49N 39°54' W 075°12'0 0.0
2017-Apr-17 18:25N 39°54' W 075°12'0 0.0
2017-Apr-17 17:58N 39°54' W 075°12'0 0.0
2017-Apr-17 17:26N 39°54' W 075°12'0 0.0
2017-Apr-17 16:44N 39°54' W 075°12'0 0.0
2017-Apr-17 15:57N 39°54' W 075°12'0 0.0
2017-Apr-17 15:30N 39°54' W 075°12'0 0.0
2017-Apr-17 15:00N 39°54' W 075°12'0 0.0
2017-Apr-17 14:28N 39°54' W 075°12'0 0.0
2017-Apr-17 13:22N 39°54' W 075°12'0 0.0
2017-Apr-17 12:53N 39°54' W 075°12'0 0.0
2017-Apr-17 11:38N 39°54' W 075°12'0 0.0
2017-Apr-17 11:27N 39°54' W 075°12'0 0.0
2017-Apr-17 10:54N 39°54' W 075°12'0 0.0
2017-Apr-17 10:18N 39°54' W 075°12'0 0.0
2017-Apr-17 09:16N 39°54' W 075°12'0 0.0
2017-Apr-17 08:58N 39°54' W 075°12'0 0.0
2017-Apr-17 08:29N 39°54' W 075°12'0 0.0
2017-Apr-17 07:56N 39°54' W 075°12'0 0.0
2017-Apr-17 07:26N 39°54' W 075°12'0 0.0
2017-Apr-17 06:57N 39°54' W 075°12'0 0.0
2017-Apr-17 06:30N 39°54' W 075°12'0 0.0
2017-Apr-17 05:57N 39°54' W 075°12'0 0.0
2017-Apr-17 05:28N 39°54' W 075°12'0 0.0
2017-Apr-17 04:58N 39°54' W 075°12'0 0.0
2017-Apr-17 04:28N 39°54' W 075°12'0 0.0
2017-Apr-17 04:01N 39°54' W 075°12'0 0.3
2017-Apr-17 03:30N 39°54' W 075°12'2 4.7
2017-Apr-17 03:00N 39°52' W 075°14'4 8.5
2017-Apr-17 02:30N 39°51' W 075°19'4 8.2
2017-Apr-17 02:00N 39°49' W 075°24'4 7.5
2017-Apr-17 01:30N 39°47' W 075°28'4 8.4
2017-Apr-17 01:00N 39°43' W 075°30'0 0.6
2017-Apr-17 00:30N 39°43' W 075°31'0 0.0
2017-Apr-17 00:00N 39°43' W 075°31'0 0.4
2017-Apr-16 23:29N 39°43' W 075°31'0 0.0
2017-Apr-16 23:00N 39°43' W 075°31'0 0.0
2017-Apr-16 22:30N 39°43' W 075°31'0 0.0
2017-Apr-16 22:00N 39°43' W 075°31'0 0.0
2017-Apr-16 21:30N 39°43' W 075°31'0 0.0
2017-Apr-16 21:00N 39°43' W 075°31'0 0.0
2017-Apr-16 20:30N 39°43' W 075°31'0 0.0
2017-Apr-16 20:00N 39°43' W 075°31'0 0.0
2017-Apr-16 19:30N 39°43' W 075°31'0 0.0
2017-Apr-16 19:00N 39°43' W 075°31'0 0.0
2017-Apr-16 18:30N 39°43' W 075°31'0 0.0
2017-Apr-16 18:00N 39°43' W 075°31'0 0.0
2017-Apr-16 17:30N 39°43' W 075°31'0 0.0
2017-Apr-16 17:00N 39°43' W 075°31'0 0.0
2017-Apr-16 16:30N 39°43' W 075°31'0 0.0
2017-Apr-16 16:00N 39°43' W 075°31'0 0.0
2017-Apr-16 15:30N 39°43' W 075°31'0 0.0
2017-Apr-16 15:00N 39°43' W 075°31'0 0.0
2017-Apr-16 14:00N 39°43' W 075°31'0 0.0
2017-Apr-16 13:30N 39°43' W 075°31'0 0.0
2017-Apr-16 13:00N 39°43' W 075°31'0 0.0
2017-Apr-16 12:30N 39°43' W 075°31'0 0.0
2017-Apr-16 12:00N 39°43' W 075°31'0 0.0
2017-Apr-16 11:30N 39°43' W 075°31'0 0.0
2017-Apr-16 11:00N 39°43' W 075°31'0 0.0
2017-Apr-16 10:30N 39°43' W 075°31'0 0.0
2017-Apr-16 10:00N 39°43' W 075°31'0 0.0
2017-Apr-16 09:30N 39°43' W 075°31'0 0.0
2017-Apr-16 09:00N 39°43' W 075°31'0 0.0
2017-Apr-16 08:30N 39°43' W 075°31'0 0.5
2017-Apr-16 08:00N 39°43' W 075°31'0 0.6
2017-Apr-16 07:30N 39°43' W 075°30'3 6.6
2017-Apr-16 07:00N 39°46' W 075°28'4 7.4
2017-Apr-16 06:30N 39°48' W 075°25'4 7.3
2017-Apr-16 06:00N 39°51' W 075°21'4 7.1
2017-Apr-16 05:30N 39°51' W 075°16'4 7.3
2017-Apr-16 05:00N 39°53' W 075°12'3 6.4
2017-Apr-16 04:31N 39°54' W 075°08'0 0.3
2017-Apr-16 04:00N 39°54' W 075°08'0 0.0
2017-Apr-16 03:30N 39°54' W 075°08'0 0.0
2017-Apr-16 02:58N 39°54' W 075°08'1 1.8
2017-Apr-16 02:30N 39°53' W 075°09'3 5.5
2017-Apr-16 01:59N 39°54' W 075°12'0 0.0
2017-Apr-16 01:29N 39°54' W 075°12'0 0.0
2017-Apr-16 00:59N 39°54' W 075°12'0 0.0
2017-Apr-16 00:30N 39°54' W 075°12'0 0.0
2017-Apr-16 00:00N 39°54' W 075°12'0 0.0
2017-Apr-15 23:30N 39°54' W 075°12'0 0.0
2017-Apr-15 22:58N 39°54' W 075°12'0 0.0
2017-Apr-15 22:28N 39°54' W 075°12'0 0.0
2017-Apr-15 21:59N 39°54' W 075°12'0 0.0
2017-Apr-15 21:29N 39°54' W 075°12'0 0.0
2017-Apr-15 20:59N 39°54' W 075°12'0 0.0
2017-Apr-15 20:30N 39°54' W 075°12'0 0.0
2017-Apr-15 20:00N 39°54' W 075°12'0 0.0
2017-Apr-15 19:30N 39°54' W 075°12'0 0.0
2017-Apr-15 19:00N 39°54' W 075°12'0 0.0
2017-Apr-15 18:28N 39°54' W 075°12'0 0.0
2017-Apr-15 17:58N 39°54' W 075°12'0 0.0
2017-Apr-15 17:26N 39°54' W 075°12'0 0.0
2017-Apr-15 16:59N 39°54' W 075°12'0 0.0
2017-Apr-15 16:26N 39°54' W 075°12'0 0.0
2017-Apr-15 15:54N 39°54' W 075°12'0 0.0
2017-Apr-15 15:27N 39°54' W 075°12'0 0.0
2017-Apr-15 14:57N 39°54' W 075°12'0 0.0
2017-Apr-15 14:28N 39°54' W 075°12'0 0.0
2017-Apr-15 13:19N 39°54' W 075°12'0 0.0
2017-Apr-15 12:53N 39°54' W 075°12'0 0.0
2017-Apr-15 12:29N 39°54' W 075°12'0 0.0
2017-Apr-15 11:56N 39°54' W 075°12'0 0.0
2017-Apr-15 11:30N 39°54' W 075°12'0 0.0
2017-Apr-15 10:48N 39°54' W 075°12'0 0.0
2017-Apr-15 10:30N 39°54' W 075°12'0 0.0
2017-Apr-15 09:55N 39°54' W 075°12'0 0.0
2017-Apr-15 09:22N 39°54' W 075°12'0 0.0
2017-Apr-15 08:55N 39°54' W 075°12'0 0.0
2017-Apr-15 08:29N 39°54' W 075°12'0 0.0
2017-Apr-15 07:56N 39°54' W 075°12'0 0.0
2017-Apr-15 07:29N 39°54' W 075°12'0 0.0
2017-Apr-15 07:00N 39°54' W 075°12'0 0.0
2017-Apr-15 06:30N 39°54' W 075°12'0 0.0
2017-Apr-15 05:48N 39°54' W 075°12'0 0.0
2017-Apr-15 05:31N 39°54' W 075°12'0 0.0
2017-Apr-15 04:55N 39°54' W 075°12'2 4.6
2017-Apr-15 04:30N 39°53' W 075°10'2 3.1
2017-Apr-15 04:00N 39°54' W 075°08'1 2.7
2017-Apr-15 03:31N 39°53' W 075°10'2 3.9
2017-Apr-15 02:55N 39°54' W 075°12'0 0.2
2017-Apr-15 02:24N 39°54' W 075°12'0 0.0
2017-Apr-15 01:48N 39°54' W 075°12'0 0.0
2017-Apr-15 01:30N 39°54' W 075°12'0 0.0
2017-Apr-15 00:55N 39°54' W 075°12'0 0.0
2017-Apr-15 00:28N 39°54' W 075°12'0 0.0
2017-Apr-14 23:55N 39°54' W 075°12'0 0.0
2017-Apr-14 23:26N 39°54' W 075°12'0 0.0
2017-Apr-14 22:56N 39°54' W 075°12'0 0.0
2017-Apr-14 22:29N 39°54' W 075°12'0 0.0
2017-Apr-14 22:00N 39°54' W 075°12'0 0.0
2017-Apr-14 21:30N 39°54' W 075°12'0 0.0
2017-Apr-14 20:54N 39°54' W 075°12'0 0.0
2017-Apr-14 20:28N 39°54' W 075°12'0 0.0
2017-Apr-14 19:58N 39°54' W 075°12'0 0.0
2017-Apr-14 19:28N 39°54' W 075°12'2 4.3
2017-Apr-14 19:00N 39°52' W 075°13'611.3
2017-Apr-14 18:30N 39°51' W 075°21'3 6.1
2017-Apr-14 18:00N 39°49' W 075°24'0 0.1
2017-Apr-14 17:30N 39°49' W 075°24'0 0.3
2017-Apr-14 17:00N 39°49' W 075°24'2 4.6
2017-Apr-14 16:30N 39°50' W 075°21'4 8.2
2017-Apr-14 16:00N 39°51' W 075°16'4 8.4
2017-Apr-14 15:30N 39°53' W 075°12'1 1.2
2017-Apr-14 15:00N 39°54' W 075°12'0 0.0
2017-Apr-14 14:30N 39°54' W 075°12'0 0.0
2017-Apr-14 13:30N 39°54' W 075°12'0 0.0
2017-Apr-14 12:58N 39°54' W 075°12'0 0.0
2017-Apr-14 12:30N 39°54' W 075°12'0 0.0
2017-Apr-14 12:00N 39°54' W 075°12'0 0.0
2017-Apr-14 11:30N 39°54' W 075°12'0 0.0
2017-Apr-14 11:00N 39°54' W 075°12'0 0.0
2017-Apr-14 10:30N 39°54' W 075°12'0 0.0
2017-Apr-14 10:00N 39°54' W 075°12'0 0.0
2017-Apr-14 09:30N 39°54' W 075°12'0 0.0
2017-Apr-14 09:00N 39°54' W 075°12'0 0.0
2017-Apr-14 08:30N 39°54' W 075°12'0 0.0
2017-Apr-14 08:00N 39°54' W 075°12'0 0.0
2017-Apr-14 07:30N 39°54' W 075°12'0 0.0
2017-Apr-14 07:00N 39°54' W 075°12'0 0.0
2017-Apr-14 06:30N 39°54' W 075°12'0 0.0
2017-Apr-14 06:00N 39°54' W 075°12'0 0.0
2017-Apr-14 05:30N 39°54' W 075°12'0 0.0
2017-Apr-14 05:00N 39°54' W 075°12'0 0.1
2017-Apr-14 04:31N 39°54' W 075°12'0 0.1
2017-Apr-14 04:00N 39°54' W 075°12'2 4.6
2017-Apr-14 03:30N 39°52' W 075°14'3 6.0
2017-Apr-14 03:00N 39°51' W 075°17'5 9.2
2017-Apr-14 02:30N 39°49' W 075°23'5 9.3
2017-Apr-14 02:00N 39°46' W 075°28'4 8.9
2017-Apr-14 01:30N 39°42' W 075°31'4 8.6
2017-Apr-14 01:00N 39°39' W 075°33'4 7.6
2017-Apr-14 00:30N 39°35' W 075°33'4 7.5
2017-Apr-14 00:00N 39°33' W 075°38'510.5
2017-Apr-13 23:30N 39°32' W 075°44'5 9.8
2017-Apr-13 23:00N 39°32' W 075°51'5 9.8
2017-Apr-13 22:30N 39°29' W 075°56'5 9.7
2017-Apr-13 22:00N 39°26' W 076°01'5 9.1
2017-Apr-13 21:30N 39°23' W 076°05'4 9.0
2017-Apr-13 21:00N 39°21' W 076°10'  
Track history (hours):
 
Tides and Currents Weather Stations Pressure Air Temp Water Temp Dewpoint Dewpoint Depression Visibility Wind Speed Wind Dir Waves Ship Positions

Susquehanna

Owner: Vane Line Bunkering, Inc., Baltimore, MD. More information available from US FCC via Universal Licensing System and Coast Guard Vessel Documentation Center.

Last reported at 2017-Apr-23 19:29 UTC. Time now 2017-Apr-23 19:38 UTC.
Position N 39°54' W 075°12'.

Length 28 m; draft 4.2 m.

Type: Tug. MMSI: 367318750.

Date/timePositionNaut miles runAvg speedWind from/ knotsBaromVisibWave heightAir tempDewpointWater temp
2017-Apr-23 19:29N 39°54' W 075°12'0 0.0
2017-Apr-23 18:59N 39°54' W 075°12'0 0.0
2017-Apr-23 18:30N 39°54' W 075°12'0 0.0
2017-Apr-23 18:00N 39°54' W 075°12'0 0.0
2017-Apr-23 17:30N 39°54' W 075°12'0 0.0
2017-Apr-23 16:58N 39°54' W 075°12'0 0.0
2017-Apr-23 16:28N 39°54' W 075°12'0 0.0
2017-Apr-23 15:58N 39°54' W 075°12'0 0.0
2017-Apr-23 15:29N 39°54' W 075°12'0 0.0
2017-Apr-23 14:59N 39°54' W 075°12'0 0.0
2017-Apr-23 14:00N 39°54' W 075°12'0 0.0
2017-Apr-23 13:30N 39°54' W 075°12'0 0.0
2017-Apr-23 13:00N 39°54' W 075°12'0 0.0
2017-Apr-23 12:30N 39°54' W 075°12'0 0.1
2017-Apr-23 12:00N 39°54' W 075°12'4 8.0
2017-Apr-23 11:30N 39°51' W 075°16'510.6
2017-Apr-23 11:00N 39°50' W 075°23'510.6
2017-Apr-23 10:30N 39°46' W 075°28'4 8.0
2017-Apr-23 10:00N 39°43' W 075°31'0 0.0
2017-Apr-23 09:30N 39°43' W 075°31'0 0.0
2017-Apr-23 08:58N 39°43' W 075°31'0 0.0
2017-Apr-23 08:30N 39°43' W 075°31'0 0.3
2017-Apr-23 07:59N 39°43' W 075°31'0 0.0
2017-Apr-23 07:29N 39°43' W 075°31'0 0.0
2017-Apr-23 06:59N 39°43' W 075°31'0 0.0
2017-Apr-23 06:30N 39°43' W 075°31'0 0.0
2017-Apr-23 06:00N 39°43' W 075°31'0 0.0
2017-Apr-23 05:30N 39°43' W 075°31'0 0.0
2017-Apr-23 04:58N 39°43' W 075°31'0 0.0
2017-Apr-23 04:28N 39°43' W 075°31'0 0.0
2017-Apr-23 03:58N 39°43' W 075°31'0 0.0
2017-Apr-23 03:29N 39°43' W 075°31'0 0.0
2017-Apr-23 02:59N 39°43' W 075°31'0 0.0
2017-Apr-23 02:29N 39°43' W 075°31'0 0.0
2017-Apr-23 02:00N 39°43' W 075°31'0 0.0
2017-Apr-23 01:30N 39°43' W 075°31'0 0.0
2017-Apr-23 01:00N 39°43' W 075°31'0 0.0
2017-Apr-23 00:28N 39°43' W 075°31'0 0.0
2017-Apr-22 23:58N 39°43' W 075°31'0 0.0
2017-Apr-22 23:28N 39°43' W 075°31'0 0.0
2017-Apr-22 22:59N 39°43' W 075°31'0 0.0
2017-Apr-22 22:30N 39°43' W 075°31'0 0.5
2017-Apr-22 22:00N 39°43' W 075°31'3 5.4
2017-Apr-22 21:30N 39°45' W 075°29'5 9.9
2017-Apr-22 21:00N 39°49' W 075°24'510.4
2017-Apr-22 20:30N 39°51' W 075°18'510.2
2017-Apr-22 20:00N 39°53' W 075°12'1 2.0
2017-Apr-22 19:30N 39°54' W 075°12'0 0.2
2017-Apr-22 18:59N 39°54' W 075°12'0 0.0
2017-Apr-22 18:29N 39°54' W 075°12'0 0.0
2017-Apr-22 17:59N 39°54' W 075°12'0 0.0
2017-Apr-22 17:30N 39°54' W 075°12'0 0.0
2017-Apr-22 16:57N 39°54' W 075°12'0 0.0
2017-Apr-22 16:30N 39°54' W 075°12'0 0.0
2017-Apr-22 15:58N 39°54' W 075°12'0 0.0
2017-Apr-22 15:28N 39°54' W 075°12'0 0.0
2017-Apr-22 14:52N 39°54' W 075°12'0 0.0
2017-Apr-22 14:29N 39°54' W 075°12'0 0.0
2017-Apr-22 13:20N 39°54' W 075°12'0 0.0
2017-Apr-22 13:00N 39°54' W 075°12'0 0.0
2017-Apr-22 12:27N 39°54' W 075°12'0 0.0
2017-Apr-22 11:54N 39°54' W 075°12'0 0.0
2017-Apr-22 11:30N 39°54' W 075°12'0 0.0
2017-Apr-22 10:54N 39°54' W 075°12'0 0.0
2017-Apr-22 10:25N 39°54' W 075°12'0 0.0
2017-Apr-22 09:58N 39°54' W 075°12'0 0.0
2017-Apr-22 09:28N 39°54' W 075°12'0 0.0
2017-Apr-22 08:56N 39°54' W 075°12'0 0.0
2017-Apr-22 08:29N 39°54' W 075°12'0 0.0
2017-Apr-22 07:56N 39°54' W 075°12'0 0.0
2017-Apr-22 07:30N 39°54' W 075°12'0 0.0
2017-Apr-22 06:57N 39°54' W 075°12'0 0.0
2017-Apr-22 06:24N 39°54' W 075°12'0 0.0
2017-Apr-22 05:55N 39°54' W 075°12'0 0.0
2017-Apr-22 05:07N 39°54' W 075°12'0 0.0
2017-Apr-22 04:55N 39°54' W 075°12'0 0.0
2017-Apr-22 04:26N 39°54' W 075°12'0 0.0
2017-Apr-22 03:59N 39°54' W 075°12'0 0.2
2017-Apr-22 03:30N 39°54' W 075°12'1 1.2
2017-Apr-22 02:59N 39°54' W 075°11'0 0.0
2017-Apr-22 02:29N 39°54' W 075°11'0 0.0
2017-Apr-22 01:59N 39°54' W 075°11'0 0.0
2017-Apr-22 01:30N 39°54' W 075°11'0 0.0
2017-Apr-22 01:00N 39°54' W 075°11'0 0.0
2017-Apr-22 00:30N 39°54' W 075°11'1 1.2
2017-Apr-22 00:01N 39°54' W 075°12'0 0.3
2017-Apr-21 23:30N 39°54' W 075°12'0 0.0
2017-Apr-21 23:00N 39°54' W 075°12'0 0.0
2017-Apr-21 22:30N 39°54' W 075°12'0 0.0
2017-Apr-21 22:01N 39°54' W 075°12'0 0.0
2017-Apr-21 21:29N 39°54' W 075°12'0 0.0
2017-Apr-21 20:59N 39°54' W 075°12'0 0.0
2017-Apr-21 20:29N 39°54' W 075°12'0 0.0
2017-Apr-21 20:00N 39°54' W 075°12'0 0.0
2017-Apr-21 19:30N 39°54' W 075°12'0 0.0
2017-Apr-21 19:00N 39°54' W 075°12'0 0.0
2017-Apr-21 18:28N 39°54' W 075°12'0 0.0
2017-Apr-21 17:58N 39°54' W 075°12'0 0.0
2017-Apr-21 17:28N 39°54' W 075°12'0 0.0
2017-Apr-21 17:00N 39°54' W 075°12'2 5.0
2017-Apr-21 16:31N 39°53' W 075°09'1 2.2
2017-Apr-21 16:01N 39°54' W 075°08'3 5.4
2017-Apr-21 15:31N 39°54' W 075°12'1 2.9
2017-Apr-21 15:01N 39°55' W 075°13'0 0.1
2017-Apr-21 14:28N 39°55' W 075°13'1 1.1
2017-Apr-21 13:30N 39°54' W 075°12'0 0.0
2017-Apr-21 13:00N 39°54' W 075°12'0 0.0
2017-Apr-21 12:31N 39°54' W 075°12'0 0.0
2017-Apr-21 11:58N 39°54' W 075°12'0 0.0
2017-Apr-21 11:28N 39°54' W 075°12'0 0.0
2017-Apr-21 10:59N 39°54' W 075°12'0 0.0
2017-Apr-21 10:29N 39°54' W 075°12'0 0.0
2017-Apr-21 09:59N 39°54' W 075°12'0 0.0
2017-Apr-21 09:30N 39°54' W 075°12'0 0.0
2017-Apr-21 09:00N 39°54' W 075°12'0 0.0
2017-Apr-21 08:30N 39°54' W 075°12'0 0.0
2017-Apr-21 07:58N 39°54' W 075°12'0 0.0
2017-Apr-21 07:28N 39°54' W 075°12'0 0.0
2017-Apr-21 06:58N 39°54' W 075°12'0 0.0
2017-Apr-21 06:29N 39°54' W 075°12'0 0.0
2017-Apr-21 05:59N 39°54' W 075°12'0 0.0
2017-Apr-21 05:29N 39°54' W 075°12'1 2.2
2017-Apr-21 05:00N 39°55' W 075°13'0 0.7
2017-Apr-21 04:30N 39°54' W 075°13'1 2.6
2017-Apr-21 04:00N 39°53' W 075°12'0 0.0
2017-Apr-21 03:28N 39°53' W 075°12'0 0.0
2017-Apr-21 02:55N 39°53' W 075°12'0 0.0
2017-Apr-21 02:22N 39°53' W 075°12'1 1.5
2017-Apr-21 01:57N 39°54' W 075°12'0 0.0
2017-Apr-21 01:30N 39°54' W 075°12'0 0.0
2017-Apr-21 01:00N 39°54' W 075°12'0 0.0
2017-Apr-21 00:28N 39°54' W 075°12'0 0.0
2017-Apr-20 23:58N 39°54' W 075°12'0 0.0
2017-Apr-20 23:28N 39°54' W 075°12'0 0.0
2017-Apr-20 22:59N 39°54' W 075°12'0 0.0
2017-Apr-20 22:26N 39°54' W 075°12'0 0.0
2017-Apr-20 21:59N 39°54' W 075°12'1 1.3
2017-Apr-20 21:30N 39°53' W 075°12'0 0.1
2017-Apr-20 21:00N 39°53' W 075°12'1 1.5
2017-Apr-20 20:30N 39°53' W 075°12'3 5.7
2017-Apr-20 20:00N 39°51' W 075°15'1 2.8
2017-Apr-20 19:30N 39°52' W 075°13'2 4.1
2017-Apr-20 19:00N 39°54' W 075°12'1 2.2
2017-Apr-20 18:30N 39°53' W 075°12'4 8.6
2017-Apr-20 18:00N 39°51' W 075°17'4 8.3
2017-Apr-20 17:30N 39°50' W 075°22'4 8.8
2017-Apr-20 17:00N 39°47' W 075°27'4 8.7
2017-Apr-20 16:30N 39°44' W 075°30'1 1.7
2017-Apr-20 16:00N 39°43' W 075°31'0 0.4
2017-Apr-20 15:29N 39°43' W 075°31'0 0.0
2017-Apr-20 14:59N 39°43' W 075°31'0 0.0
2017-Apr-20 14:29N 39°43' W 075°31'0 0.0
2017-Apr-20 13:30N 39°43' W 075°31'0 0.0
2017-Apr-20 13:00N 39°43' W 075°31'0 0.0
2017-Apr-20 12:28N 39°43' W 075°31'0 0.0
2017-Apr-20 11:58N 39°43' W 075°31'0 0.0
2017-Apr-20 11:28N 39°43' W 075°31'0 0.0
2017-Apr-20 10:59N 39°43' W 075°31'0 0.0
2017-Apr-20 10:29N 39°43' W 075°31'0 0.0
2017-Apr-20 09:59N 39°43' W 075°31'0 0.0
2017-Apr-20 09:27N 39°43' W 075°31'0 0.0
2017-Apr-20 09:00N 39°43' W 075°31'0 0.0
2017-Apr-20 08:30N 39°43' W 075°31'0 0.0
2017-Apr-20 07:58N 39°43' W 075°31'0 0.0
2017-Apr-20 07:25N 39°43' W 075°31'0 0.0
2017-Apr-20 06:58N 39°43' W 075°31'0 0.0
2017-Apr-20 06:29N 39°43' W 075°31'0 0.0
2017-Apr-20 05:59N 39°43' W 075°31'0 0.0
2017-Apr-20 05:29N 39°43' W 075°31'0 0.5
2017-Apr-20 05:00N 39°43' W 075°31'1 2.3
2017-Apr-20 04:30N 39°44' W 075°30'5 9.9
2017-Apr-20 04:00N 39°48' W 075°26'510.5
2017-Apr-20 03:30N 39°51' W 075°20'510.0
2017-Apr-20 03:00N 39°52' W 075°14'2 4.9
2017-Apr-20 02:30N 39°54' W 075°12'0 0.0
2017-Apr-20 02:00N 39°54' W 075°12'0 0.0
2017-Apr-20 01:30N 39°54' W 075°12'0 0.2
2017-Apr-20 01:00N 39°54' W 075°12'0 0.0
2017-Apr-20 00:30N 39°54' W 075°12'0 0.0
2017-Apr-19 23:58N 39°54' W 075°12'0 0.0
2017-Apr-19 23:23N 39°54' W 075°12'0 0.0
2017-Apr-19 22:56N 39°54' W 075°12'1 1.8
2017-Apr-19 22:31N 39°53' W 075°12'3 6.3
2017-Apr-19 22:00N 39°54' W 075°08'0 0.8
2017-Apr-19 21:30N 39°54' W 075°08'0 0.1
2017-Apr-19 21:01N 39°54' W 075°08'3 6.9
2017-Apr-19 20:31N 39°54' W 075°12'0 0.5
2017-Apr-19 20:00N 39°54' W 075°12'0 0.0
2017-Apr-19 19:30N 39°54' W 075°12'0 0.0
2017-Apr-19 19:00N 39°54' W 075°12'0 0.0
2017-Apr-19 18:28N 39°54' W 075°12'0 0.0
2017-Apr-19 17:58N 39°54' W 075°12'1 2.0
2017-Apr-19 17:28N 39°55' W 075°13'0 0.1
2017-Apr-19 16:58N 39°55' W 075°13'2 3.8
2017-Apr-19 16:30N 39°53' W 075°12'3 5.9
2017-Apr-19 15:57N 39°51' W 075°15'0 0.0
2017-Apr-19 15:30N 39°51' W 075°15'0 0.0
2017-Apr-19 15:01N 39°51' W 075°15'3 6.7
2017-Apr-19 14:30N 39°54' W 075°12'0 0.0
2017-Apr-19 13:23N 39°54' W 075°12'0 0.0
2017-Apr-19 13:00N 39°54' W 075°12'0 0.0
2017-Apr-19 12:30N 39°54' W 075°12'0 0.2
2017-Apr-19 11:58N 39°54' W 075°12'1 1.2
2017-Apr-19 11:29N 39°54' W 075°11'0 0.0
2017-Apr-19 10:59N 39°54' W 075°11'0 0.0
2017-Apr-19 10:30N 39°54' W 075°11'0 0.0
2017-Apr-19 10:00N 39°54' W 075°11'1 1.4
2017-Apr-19 09:30N 39°54' W 075°12'0 0.0
2017-Apr-19 08:58N 39°54' W 075°12'0 0.0
2017-Apr-19 08:28N 39°54' W 075°12'0 0.0
2017-Apr-19 07:58N 39°54' W 075°12'0 0.0
2017-Apr-19 07:29N 39°54' W 075°12'0 0.0
2017-Apr-19 06:59N 39°54' W 075°12'0 0.0
2017-Apr-19 06:30N 39°54' W 075°12'0 0.3
2017-Apr-19 06:00N 39°54' W 075°12'1 2.9
2017-Apr-19 05:30N 39°52' W 075°12'0 0.0
2017-Apr-19 04:59N 39°52' W 075°12'0 0.0
2017-Apr-19 04:29N 39°52' W 075°12'0 0.0
2017-Apr-19 03:57N 39°52' W 075°12'0 0.0
2017-Apr-19 03:30N 39°52' W 075°12'0 0.0
2017-Apr-19 03:00N 39°52' W 075°12'0 0.0
2017-Apr-19 02:28N 39°52' W 075°12'0 0.0
2017-Apr-19 01:55N 39°52' W 075°12'0 0.0
2017-Apr-19 01:28N 39°52' W 075°12'0 0.1
2017-Apr-19 00:59N 39°52' W 075°12'0 0.0
2017-Apr-19 00:29N 39°52' W 075°12'0 0.1
2017-Apr-18 23:59N 39°52' W 075°12'0 0.0
2017-Apr-18 23:30N 39°52' W 075°12'0 0.0
2017-Apr-18 23:00N 39°52' W 075°12'0 0.0
2017-Apr-18 22:30N 39°52' W 075°12'1 2.5
2017-Apr-18 22:01N 39°54' W 075°12'0 0.9
2017-Apr-18 21:30N 39°54' W 075°12'0 0.0
2017-Apr-18 21:00N 39°54' W 075°12'1 2.6
2017-Apr-18 20:30N 39°52' W 075°12'0 0.0
2017-Apr-18 19:59N 39°52' W 075°12'0 0.0
2017-Apr-18 19:29N 39°52' W 075°12'1 2.8
2017-Apr-18 19:00N 39°54' W 075°12'2 3.6
2017-Apr-18 18:30N 39°52' W 075°13'1 1.0
2017-Apr-18 17:58N 39°52' W 075°12'0 0.0
2017-Apr-18 17:28N 39°52' W 075°12'0 0.0
2017-Apr-18 16:58N 39°52' W 075°12'0 0.0
2017-Apr-18 16:30N 39°52' W 075°12'1 2.9
2017-Apr-18 16:00N 39°54' W 075°12'1 2.8
2017-Apr-18 15:30N 39°52' W 075°12'2 4.9
2017-Apr-18 15:00N 39°51' W 075°15'4 8.2
2017-Apr-18 14:30N 39°51' W 075°21'8 8.1
2017-Apr-18 13:30N 39°46' W 075°29'3 6.3
2017-Apr-18 13:01N 39°43' W 075°31'0 0.0
2017-Apr-18 12:30N 39°43' W 075°31'0 0.4
2017-Apr-18 11:58N 39°43' W 075°31'0 0.0
2017-Apr-18 11:29N 39°43' W 075°31'0 0.0
2017-Apr-18 10:59N 39°43' W 075°31'0 0.0
2017-Apr-18 10:29N 39°43' W 075°31'0 0.0
2017-Apr-18 10:00N 39°43' W 075°31'0 0.0
2017-Apr-18 09:30N 39°43' W 075°31'0 0.0
2017-Apr-18 09:00N 39°43' W 075°31'0 0.0
2017-Apr-18 08:30N 39°43' W 075°31'0 0.0
2017-Apr-18 08:00N 39°43' W 075°31'0 0.0
2017-Apr-18 07:30N 39°43' W 075°31'0 0.0
2017-Apr-18 07:00N 39°43' W 075°31'0 0.0
2017-Apr-18 06:30N 39°43' W 075°31'0 0.0
2017-Apr-18 06:00N 39°43' W 075°31'0 0.0
2017-Apr-18 05:30N 39°43' W 075°31'0 0.0
2017-Apr-18 05:00N 39°43' W 075°31'0 0.0
2017-Apr-18 04:30N 39°43' W 075°31'0 0.0
2017-Apr-18 04:00N 39°43' W 075°31'0 0.0
2017-Apr-18 03:30N 39°43' W 075°31'0 0.0
2017-Apr-18 03:00N 39°43' W 075°31'0 0.0
2017-Apr-18 02:30N 39°43' W 075°31'0 0.0
2017-Apr-18 02:00N 39°43' W 075°31'0 0.5
2017-Apr-18 01:30N 39°43' W 075°31'0 0.7
2017-Apr-18 01:00N 39°43' W 075°30'4 8.2
2017-Apr-18 00:30N 39°47' W 075°28'4 8.8
2017-Apr-18 00:00N 39°49' W 075°23'5 9.2
2017-Apr-17 23:30N 39°51' W 075°18'4 8.5
2017-Apr-17 23:00N 39°52' W 075°12'1 2.5
2017-Apr-17 22:30N 39°54' W 075°12'0 0.0
2017-Apr-17 22:00N 39°54' W 075°12'0 0.2
2017-Apr-17 21:30N 39°54' W 075°12'0 0.0
2017-Apr-17 20:59N 39°54' W 075°12'0 0.0
2017-Apr-17 20:30N 39°54' W 075°12'0 0.0
2017-Apr-17 20:00N 39°54' W 075°12'0 0.0
2017-Apr-17 19:24N 39°54' W 075°12'0 0.0
2017-Apr-17 18:49N 39°54' W 075°12'0 0.0
2017-Apr-17 18:25N 39°54' W 075°12'0 0.0
2017-Apr-17 17:58N 39°54' W 075°12'0 0.0
2017-Apr-17 17:26N 39°54' W 075°12'0 0.0
2017-Apr-17 16:44N 39°54' W 075°12'0 0.0
2017-Apr-17 15:57N 39°54' W 075°12'0 0.0
2017-Apr-17 15:30N 39°54' W 075°12'0 0.0
2017-Apr-17 15:00N 39°54' W 075°12'0 0.0
2017-Apr-17 14:28N 39°54' W 075°12'0 0.0
2017-Apr-17 13:22N 39°54' W 075°12'0 0.0
2017-Apr-17 12:53N 39°54' W 075°12'0 0.0
2017-Apr-17 11:38N 39°54' W 075°12'0 0.0
2017-Apr-17 11:27N 39°54' W 075°12'0 0.0
2017-Apr-17 10:54N 39°54' W 075°12'0 0.0
2017-Apr-17 10:18N 39°54' W 075°12'0 0.0
2017-Apr-17 09:16N 39°54' W 075°12'0 0.0
2017-Apr-17 08:58N 39°54' W 075°12'0 0.0
2017-Apr-17 08:29N 39°54' W 075°12'0 0.0
2017-Apr-17 07:56N 39°54' W 075°12'0 0.0
2017-Apr-17 07:26N 39°54' W 075°12'0 0.0
2017-Apr-17 06:57N 39°54' W 075°12'0 0.0
2017-Apr-17 06:30N 39°54' W 075°12'0 0.0
2017-Apr-17 05:57N 39°54' W 075°12'0 0.0
2017-Apr-17 05:28N 39°54' W 075°12'0 0.0
2017-Apr-17 04:58N 39°54' W 075°12'0 0.0
2017-Apr-17 04:28N 39°54' W 075°12'0 0.0
2017-Apr-17 04:01N 39°54' W 075°12'0 0.3
2017-Apr-17 03:30N 39°54' W 075°12'2 4.7
2017-Apr-17 03:00N 39°52' W 075°14'4 8.5
2017-Apr-17 02:30N 39°51' W 075°19'4 8.2
2017-Apr-17 02:00N 39°49' W 075°24'4 7.5
2017-Apr-17 01:30N 39°47' W 075°28'4 8.4
2017-Apr-17 01:00N 39°43' W 075°30'0 0.6
2017-Apr-17 00:30N 39°43' W 075°31'0 0.0
2017-Apr-17 00:00N 39°43' W 075°31'0 0.4
2017-Apr-16 23:29N 39°43' W 075°31'0 0.0
2017-Apr-16 23:00N 39°43' W 075°31'0 0.0
2017-Apr-16 22:30N 39°43' W 075°31'0 0.0
2017-Apr-16 22:00N 39°43' W 075°31'0 0.0
2017-Apr-16 21:30N 39°43' W 075°31'0 0.0
2017-Apr-16 21:00N 39°43' W 075°31'0 0.0
2017-Apr-16 20:30N 39°43' W 075°31'0 0.0
2017-Apr-16 20:00N 39°43' W 075°31'0 0.0
2017-Apr-16 19:30N 39°43' W 075°31'0 0.0
2017-Apr-16 19:00N 39°43' W 075°31'0 0.0
2017-Apr-16 18:30N 39°43' W 075°31'0 0.0
2017-Apr-16 18:00N 39°43' W 075°31'0 0.0
2017-Apr-16 17:30N 39°43' W 075°31'0 0.0
2017-Apr-16 17:00N 39°43' W 075°31'0 0.0
2017-Apr-16 16:30N 39°43' W 075°31'0 0.0
2017-Apr-16 16:00N 39°43' W 075°31'0 0.0
2017-Apr-16 15:30N 39°43' W 075°31'0 0.0
2017-Apr-16 15:00N 39°43' W 075°31'0 0.0
2017-Apr-16 14:00N 39°43' W 075°31'0 0.0
2017-Apr-16 13:30N 39°43' W 075°31'0 0.0
2017-Apr-16 13:00N 39°43' W 075°31'0 0.0
2017-Apr-16 12:30N 39°43' W 075°31'0 0.0
2017-Apr-16 12:00N 39°43' W 075°31'0 0.0
2017-Apr-16 11:30N 39°43' W 075°31'0 0.0
2017-Apr-16 11:00N 39°43' W 075°31'0 0.0
2017-Apr-16 10:30N 39°43' W 075°31'0 0.0
2017-Apr-16 10:00N 39°43' W 075°31'0 0.0
2017-Apr-16 09:30N 39°43' W 075°31'0 0.0
2017-Apr-16 09:00N 39°43' W 075°31'0 0.0
2017-Apr-16 08:30N 39°43' W 075°31'0 0.5
2017-Apr-16 08:00N 39°43' W 075°31'0 0.6
2017-Apr-16 07:30N 39°43' W 075°30'3 6.6
2017-Apr-16 07:00N 39°46' W 075°28'4 7.4
2017-Apr-16 06:30N 39°48' W 075°25'4 7.3
2017-Apr-16 06:00N 39°51' W 075°21'4 7.1
2017-Apr-16 05:30N 39°51' W 075°16'4 7.3
2017-Apr-16 05:00N 39°53' W 075°12'3 6.4
2017-Apr-16 04:31N 39°54' W 075°08'0 0.3
2017-Apr-16 04:00N 39°54' W 075°08'0 0.0
2017-Apr-16 03:30N 39°54' W 075°08'0 0.0
2017-Apr-16 02:58N 39°54' W 075°08'1 1.8
2017-Apr-16 02:30N 39°53' W 075°09'3 5.5
2017-Apr-16 01:59N 39°54' W 075°12'0 0.0
2017-Apr-16 01:29N 39°54' W 075°12'0 0.0
2017-Apr-16 00:59N 39°54' W 075°12'0 0.0
2017-Apr-16 00:30N 39°54' W 075°12'0 0.0
2017-Apr-16 00:00N 39°54' W 075°12'0 0.0
2017-Apr-15 23:30N 39°54' W 075°12'0 0.0
2017-Apr-15 22:58N 39°54' W 075°12'0 0.0
2017-Apr-15 22:28N 39°54' W 075°12'0 0.0
2017-Apr-15 21:59N 39°54' W 075°12'0 0.0
2017-Apr-15 21:29N 39°54' W 075°12'0 0.0
2017-Apr-15 20:59N 39°54' W 075°12'0 0.0
2017-Apr-15 20:30N 39°54' W 075°12'0 0.0
2017-Apr-15 20:00N 39°54' W 075°12'0 0.0
2017-Apr-15 19:30N 39°54' W 075°12'0 0.0
2017-Apr-15 19:00N 39°54' W 075°12'0 0.0
2017-Apr-15 18:28N 39°54' W 075°12'0 0.0
2017-Apr-15 17:58N 39°54' W 075°12'0 0.0
2017-Apr-15 17:26N 39°54' W 075°12'0 0.0
2017-Apr-15 16:59N 39°54' W 075°12'0 0.0
2017-Apr-15 16:26N 39°54' W 075°12'0 0.0
2017-Apr-15 15:54N 39°54' W 075°12'0 0.0
2017-Apr-15 15:27N 39°54' W 075°12'0 0.0
2017-Apr-15 14:57N 39°54' W 075°12'0 0.0
2017-Apr-15 14:28N 39°54' W 075°12'0 0.0
2017-Apr-15 13:19N 39°54' W 075°12'0 0.0
2017-Apr-15 12:53N 39°54' W 075°12'0 0.0
2017-Apr-15 12:29N 39°54' W 075°12'0 0.0
2017-Apr-15 11:56N 39°54' W 075°12'0 0.0
2017-Apr-15 11:30N 39°54' W 075°12'0 0.0
2017-Apr-15 10:48N 39°54' W 075°12'0 0.0
2017-Apr-15 10:30N 39°54' W 075°12'0 0.0
2017-Apr-15 09:55N 39°54' W 075°12'0 0.0
2017-Apr-15 09:22N 39°54' W 075°12'0 0.0
2017-Apr-15 08:55N 39°54' W 075°12'0 0.0
2017-Apr-15 08:29N 39°54' W 075°12'0 0.0
2017-Apr-15 07:56N 39°54' W 075°12'0 0.0
2017-Apr-15 07:29N 39°54' W 075°12'0 0.0
2017-Apr-15 07:00N 39°54' W 075°12'0 0.0
2017-Apr-15 06:30N 39°54' W 075°12'0 0.0
2017-Apr-15 05:48N 39°54' W 075°12'0 0.0
2017-Apr-15 05:31N 39°54' W 075°12'0 0.0
2017-Apr-15 04:55N 39°54' W 075°12'2 4.6
2017-Apr-15 04:30N 39°53' W 075°10'2 3.1
2017-Apr-15 04:00N 39°54' W 075°08'1 2.7
2017-Apr-15 03:31N 39°53' W 075°10'2 3.9
2017-Apr-15 02:55N 39°54' W 075°12'0 0.2
2017-Apr-15 02:24N 39°54' W 075°12'0 0.0
2017-Apr-15 01:48N 39°54' W 075°12'0 0.0
2017-Apr-15 01:30N 39°54' W 075°12'0 0.0
2017-Apr-15 00:55N 39°54' W 075°12'0 0.0
2017-Apr-15 00:28N 39°54' W 075°12'0 0.0
2017-Apr-14 23:55N 39°54' W 075°12'0 0.0
2017-Apr-14 23:26N 39°54' W 075°12'0 0.0
2017-Apr-14 22:56N 39°54' W 075°12'0 0.0
2017-Apr-14 22:29N 39°54' W 075°12'0 0.0
2017-Apr-14 22:00N 39°54' W 075°12'0 0.0
2017-Apr-14 21:30N 39°54' W 075°12'0 0.0
2017-Apr-14 20:54N 39°54' W 075°12'0 0.0
2017-Apr-14 20:28N 39°54' W 075°12'0 0.0
2017-Apr-14 19:58N 39°54' W 075°12'0 0.0
2017-Apr-14 19:28N 39°54' W 075°12'2 4.3
2017-Apr-14 19:00N 39°52' W 075°13'611.3
2017-Apr-14 18:30N 39°51' W 075°21'3 6.1
2017-Apr-14 18:00N 39°49' W 075°24'0 0.1
2017-Apr-14 17:30N 39°49' W 075°24'0 0.3
2017-Apr-14 17:00N 39°49' W 075°24'2 4.6
2017-Apr-14 16:30N 39°50' W 075°21'4 8.2
2017-Apr-14 16:00N 39°51' W 075°16'4 8.4
2017-Apr-14 15:30N 39°53' W 075°12'1 1.2
2017-Apr-14 15:00N 39°54' W 075°12'0 0.0
2017-Apr-14 14:30N 39°54' W 075°12'0 0.0
2017-Apr-14 13:30N 39°54' W 075°12'0 0.0
2017-Apr-14 12:58N 39°54' W 075°12'0 0.0
2017-Apr-14 12:30N 39°54' W 075°12'0 0.0
2017-Apr-14 12:00N 39°54' W 075°12'0 0.0
2017-Apr-14 11:30N 39°54' W 075°12'0 0.0
2017-Apr-14 11:00N 39°54' W 075°12'0 0.0
2017-Apr-14 10:30N 39°54' W 075°12'0 0.0
2017-Apr-14 10:00N 39°54' W 075°12'0 0.0
2017-Apr-14 09:30N 39°54' W 075°12'0 0.0
2017-Apr-14 09:00N 39°54' W 075°12'0 0.0
2017-Apr-14 08:30N 39°54' W 075°12'0 0.0
2017-Apr-14 08:00N 39°54' W 075°12'0 0.0
2017-Apr-14 07:30N 39°54' W 075°12'0 0.0
2017-Apr-14 07:00N 39°54' W 075°12'0 0.0
2017-Apr-14 06:30N 39°54' W 075°12'0 0.0
2017-Apr-14 06:00N 39°54' W 075°12'0 0.0
2017-Apr-14 05:30N 39°54' W 075°12'0 0.0
2017-Apr-14 05:00N 39°54' W 075°12'0 0.1
2017-Apr-14 04:31N 39°54' W 075°12'0 0.1
2017-Apr-14 04:00N 39°54' W 075°12'2 4.6
2017-Apr-14 03:30N 39°52' W 075°14'3 6.0
2017-Apr-14 03:00N 39°51' W 075°17'5 9.2
2017-Apr-14 02:30N 39°49' W 075°23'5 9.3
2017-Apr-14 02:00N 39°46' W 075°28'4 8.9
2017-Apr-14 01:30N 39°42' W 075°31'4 8.6
2017-Apr-14 01:00N 39°39' W 075°33'4 7.6
2017-Apr-14 00:30N 39°35' W 075°33'4 7.5
2017-Apr-14 00:00N 39°33' W 075°38'510.5
2017-Apr-13 23:30N 39°32' W 075°44'5 9.8
2017-Apr-13 23:00N 39°32' W 075°51'5 9.8
2017-Apr-13 22:30N 39°29' W 075°56'5 9.7
2017-Apr-13 22:00N 39°26' W 076°01'5 9.1
2017-Apr-13 21:30N 39°23' W 076°05'4 9.0
2017-Apr-13 21:00N 39°21' W 076°10'  

Dump ship's entire track history